Terminal Aerodrome Forecast
Issued by NWS

Home | Current Version | Previous Version | Text Only | Print | Product List | Glossary On
Versions: 1 2 3 4 5 6 7 8 9 10 11 12 13
000
FTUS45 KRIW 290500
TAFCPR
TAF
KCPR 290527Z 2906/3006 24007KT P6SM SCT110
     FM291100 VRB06KT P6SM VCSH SCT080 BKN110
     FM291400 VRB06KT P6SM SCT120
     FM292000 VRB10G15KT P6SM VCTS SCT080CB BKN120
     FM300200 08008KT P6SM VCSH SCT100 BKN150=

USA.gov is the U.S. government's official web portal to all federal, state and local government web resources and services.